createdAt,value
2017-02-21T00:00:54.564Z,0
2017-02-21T00:01:55.615Z,0
2017-02-21T00:02:54.614Z,0
2017-02-21T00:03:54.632Z,0
2017-02-21T00:04:55.442Z,0
2017-02-21T00:05:55.471Z,0
2017-02-21T00:06:55.748Z,0
2017-02-21T00:07:55.124Z,0
2017-02-21T00:08:54.767Z,0
2017-02-21T00:09:55.594Z,0
2017-02-21T00:10:54.447Z,0
2017-02-21T00:11:54.064Z,0
2017-02-21T00:12:55.145Z,0
2017-02-21T00:13:54.926Z,0
2017-02-21T00:14:55.747Z,0
2017-02-21T00:15:54.955Z,0
2017-02-21T00:16:54.604Z,0
2017-02-21T00:17:55.649Z,0
2017-02-21T00:18:54.646Z,0
2017-02-21T00:19:55.491Z,0
2017-02-21T00:20:55.884Z,0
2017-02-21T00:21:55.932Z,0
2017-02-21T00:22:55.006Z,0
2017-02-21T00:23:55.177Z,0
2017-02-21T00:24:56.004Z,0
2017-02-21T00:25:54.434Z,0
2017-02-21T00:26:55.315Z,0
2017-02-21T00:27:56.352Z,0
2017-02-21T00:28:54.937Z,0
2017-02-21T00:29:55.342Z,0
2017-02-21T00:30:54.995Z,0
2017-02-21T00:31:55.800Z,0
2017-02-21T00:32:55.676Z,0
2017-02-21T00:33:56.261Z,0
2017-02-21T00:34:55.889Z,0
2017-02-21T00:35:56.290Z,0
2017-02-21T00:36:55.927Z,0
2017-02-21T00:37:56.236Z,0
2017-02-21T00:38:56.413Z,0
2017-02-21T00:39:55.193Z,0
2017-02-21T00:40:56.046Z,0
2017-02-21T00:42:10.798Z,0
2017-02-21T00:42:55.320Z,0
2017-02-21T00:43:55.717Z,0
2017-02-21T00:44:56.182Z,0
2017-02-21T00:45:56.559Z,0
2017-02-21T00:46:56.612Z,0
2017-02-21T00:47:56.095Z,0
2017-02-21T00:48:55.884Z,0
2017-02-21T00:49:56.690Z,0
2017-02-21T00:50:55.906Z,0
2017-02-21T00:51:56.353Z,0
2017-02-21T00:52:56.236Z,0
2017-02-21T00:53:56.392Z,0
2017-02-21T00:54:56.809Z,0
2017-02-21T00:55:56.442Z,0
2017-02-21T00:56:56.101Z,0
2017-02-21T00:57:56.355Z,0
2017-02-21T00:58:56.122Z,0
2017-02-21T00:59:56.546Z,0
2017-02-21T01:00:56.978Z,0
2017-02-21T01:01:56.198Z,0
2017-02-21T01:02:56.499Z,0
2017-02-21T01:03:56.304Z,0
2017-02-21T01:04:56.727Z,0
2017-02-21T01:05:55.525Z,0
2017-02-21T01:06:55.954Z,0
2017-02-21T01:07:56.619Z,0
2017-02-21T01:08:56.791Z,0
2017-02-21T01:09:56.052Z,0
2017-02-21T01:10:56.861Z,0
2017-02-21T01:11:57.266Z,0
2017-02-21T01:12:57.579Z,0
2017-02-21T01:13:56.947Z,0
2017-02-21T01:14:57.373Z,0
2017-02-21T01:15:57.016Z,0
2017-02-21T01:16:57.422Z,0
2017-02-21T01:17:57.296Z,0
2017-02-21T01:18:56.291Z,0
2017-02-21T01:19:56.312Z,0
2017-02-21T01:20:57.140Z,0
2017-02-21T01:21:57.169Z,0
2017-02-21T01:22:57.042Z,0
2017-02-21T01:23:57.203Z,0
2017-02-21T01:24:57.644Z,0
2017-02-21T01:25:56.452Z,0
2017-02-21T01:26:57.556Z,0
2017-02-21T01:27:57.310Z,0
2017-02-21T01:28:57.371Z,0
2017-02-21T01:30:29.048Z,0
2017-02-21T01:32:02.232Z,0
2017-02-21T01:32:13.009Z,0
2017-02-21T01:33:12.229Z,0
2017-02-21T01:34:11.890Z,0
2017-02-21T01:35:12.268Z,0
2017-02-21T01:36:11.892Z,0
2017-02-21T01:37:12.581Z,0
2017-02-21T01:38:13.152Z,0
2017-02-21T01:39:11.999Z,0
2017-02-21T01:40:12.819Z,0
2017-02-21T01:41:12.043Z,0
2017-02-21T01:42:12.337Z,0
2017-02-21T01:43:12.900Z,0
2017-02-21T01:44:12.149Z,0
2017-02-21T01:45:12.558Z,0
2017-02-21T01:46:12.566Z,0
2017-02-21T01:47:13.275Z,0
2017-02-21T01:48:12.229Z,0
2017-02-21T01:49:11.871Z,0
2017-02-21T01:50:13.071Z,0
2017-02-21T01:51:13.099Z,0
2017-02-21T01:52:12.980Z,0
2017-02-21T01:53:12.760Z,0
2017-02-21T01:54:12.793Z,0
2017-02-21T01:55:13.225Z,0
2017-02-21T01:56:13.642Z,0
2017-02-21T01:57:13.536Z,0
2017-02-21T01:58:12.893Z,0
2017-02-21T01:59:12.938Z,0
2017-02-21T02:00:12.970Z,0
2017-02-21T02:01:12.570Z,0
2017-02-21T02:02:13.276Z,0
2017-02-21T02:03:13.433Z,0
2017-02-21T02:04:13.109Z,0
2017-02-21T02:05:12.341Z,0
2017-02-21T02:06:13.105Z,0
2017-02-21T02:07:14.187Z,0
2017-02-21T02:08:13.970Z,0
2017-02-21T02:09:13.995Z,0
2017-02-21T02:10:13.630Z,0
2017-02-21T02:11:14.052Z,0
2017-02-21T02:12:14.367Z,0
2017-02-21T02:13:12.927Z,0
2017-02-21T02:14:14.160Z,0
2017-02-21T02:15:13.392Z,0
2017-02-21T02:16:12.998Z,0
2017-02-21T02:17:13.663Z,0
2017-02-21T02:18:13.837Z,0
2017-02-21T02:19:13.859Z,0
2017-02-21T02:20:13.889Z,0
2017-02-21T02:21:13.534Z,0
2017-02-21T02:22:14.200Z,0
2017-02-21T02:23:13.589Z,0
2017-02-21T02:24:13.595Z,0
2017-02-21T02:25:13.624Z,0
2017-02-21T02:26:13.658Z,0
2017-02-21T02:27:13.936Z,0
2017-02-21T02:28:14.507Z,0
2017-02-21T02:29:13.743Z,0
2017-02-21T02:30:12.975Z,0
2017-02-21T02:31:14.225Z,0
2017-02-21T02:32:14.105Z,0
2017-02-21T02:33:14.678Z,0
2017-02-21T02:34:14.271Z,0
2017-02-21T02:35:13.899Z,0
2017-02-21T02:36:13.533Z,0
2017-02-21T02:37:14.609Z,0
2017-02-21T02:38:14.385Z,0
2017-02-21T02:39:13.993Z,0
2017-02-21T02:40:14.438Z,0
2017-02-21T02:41:14.052Z,0
2017-02-21T02:42:13.701Z,0
2017-02-21T02:43:15.158Z,0
2017-02-21T02:44:14.531Z,0
2017-02-21T02:45:14.180Z,0
2017-02-21T02:46:15.012Z,0
2017-02-21T02:47:14.621Z,0
2017-02-21T02:48:14.901Z,0
2017-02-21T02:49:13.874Z,0
2017-02-21T02:50:14.294Z,0
2017-02-21T02:51:14.740Z,0
2017-02-21T02:52:14.360Z,0
2017-02-21T02:53:14.305Z,0
2017-02-21T02:54:13.630Z,0
2017-02-21T02:55:15.226Z,0
2017-02-21T02:56:14.864Z,0
2017-02-21T02:57:14.907Z,0
2017-02-21T02:58:15.569Z,0
2017-02-21T02:59:14.965Z,0
2017-02-21T03:00:14.597Z,0
2017-02-21T03:01:14.623Z,0
2017-02-21T03:02:14.642Z,0
2017-02-21T03:03:15.308Z,0
2017-02-21T03:04:14.721Z,0
2017-02-21T03:05:13.929Z,0
2017-02-21T03:06:15.554Z,0
2017-02-21T03:07:14.787Z,0
2017-02-21T03:08:15.848Z,0
2017-02-21T03:09:15.605Z,0
2017-02-21T03:10:15.277Z,0
2017-02-21T03:11:15.278Z,0
2017-02-21T03:12:15.306Z,0
2017-02-21T03:13:14.774Z,0
2017-02-21T03:14:15.363Z,0
2017-02-21T03:15:15.001Z,0
2017-02-21T03:16:15.401Z,0
2017-02-21T03:17:15.430Z,0
2017-02-21T03:18:15.327Z,0
2017-02-21T03:19:14.323Z,0
2017-02-21T03:20:14.732Z,0
2017-02-21T03:21:15.157Z,0
2017-02-21T03:22:15.950Z,0
2017-02-21T03:23:16.242Z,0
2017-02-21T03:24:15.627Z,0
2017-02-21T03:25:16.039Z,0
2017-02-21T03:26:15.276Z,0
2017-02-21T03:27:15.713Z,0
2017-02-21T03:28:15.586Z,0
2017-02-21T03:29:16.159Z,0
2017-02-21T03:30:15.800Z,0
2017-02-21T03:31:15.021Z,0
2017-02-21T03:32:15.837Z,0
2017-02-21T03:33:16.111Z,0
2017-02-21T03:34:16.291Z,0
2017-02-21T03:35:16.324Z,0
2017-02-21T03:36:15.945Z,0
2017-02-21T03:37:16.409Z,0
2017-02-21T03:38:15.487Z,0
2017-02-21T03:39:15.651Z,0
2017-02-21T03:40:14.867Z,0
2017-02-21T03:41:15.689Z,0
2017-02-21T03:42:16.501Z,0
2017-02-21T03:43:16.381Z,0
2017-02-21T03:44:15.796Z,0
2017-02-21T03:45:15.395Z,0
2017-02-21T03:46:16.618Z,0
2017-02-21T03:47:16.245Z,0
2017-02-21T03:48:16.933Z,0
2017-02-21T03:49:15.914Z,0
2017-02-21T03:50:15.526Z,0
2017-02-21T03:51:15.163Z,0
2017-02-21T03:52:16.005Z,0
2017-02-21T03:53:17.052Z,0
2017-02-21T03:54:16.173Z,0
2017-02-21T03:55:16.479Z,0
2017-02-21T03:56:15.701Z,0
2017-02-21T03:57:15.716Z,0
2017-02-21T03:58:17.213Z,0
2017-02-21T03:59:16.966Z,0
2017-02-21T04:00:16.600Z,0
2017-02-21T04:01:16.218Z,0
2017-02-21T04:02:16.660Z,0
2017-02-21T04:03:16.700Z,0
2017-02-21T04:04:16.973Z,0
2017-02-21T04:05:15.932Z,0
2017-02-21T04:06:16.771Z,0
2017-02-21T04:07:16.780Z,0
2017-02-21T04:08:16.050Z,0
2017-02-21T04:09:17.104Z,0
2017-02-21T04:10:16.867Z,0
2017-02-21T04:11:16.903Z,0
2017-02-21T04:12:17.340Z,0
2017-02-21T04:13:16.572Z,0
2017-02-21T04:14:16.465Z,0
2017-02-21T04:15:17.397Z,0
2017-02-21T04:16:16.231Z,0
2017-02-21T04:17:16.647Z,0
2017-02-21T04:18:16.339Z,0
2017-02-21T04:19:16.965Z,0
2017-02-21T04:20:16.355Z,0
2017-02-21T04:21:16.775Z,0
2017-02-21T04:22:17.207Z,0
2017-02-21T04:23:17.616Z,0
2017-02-21T04:24:17.501Z,0
2017-02-21T04:25:16.461Z,0
2017-02-21T04:26:17.298Z,0
2017-02-21T04:27:16.523Z,0
2017-02-21T04:28:16.948Z,0
2017-02-21T04:29:17.636Z,0
2017-02-21T04:30:17.045Z,0
2017-02-21T04:31:17.058Z,0
2017-02-21T04:32:17.456Z,0
2017-02-21T04:33:17.116Z,0
2017-02-21T04:34:17.378Z,0
2017-02-21T04:35:17.945Z,0
2017-02-21T04:36:17.579Z,0
2017-02-21T04:37:17.194Z,0
2017-02-21T04:38:17.615Z,0
2017-02-21T04:39:17.911Z,0
2017-02-21T04:40:16.521Z,0
2017-02-21T04:41:17.689Z,0
2017-02-21T04:42:17.733Z,0
2017-02-21T04:43:17.749Z,0
2017-02-21T04:44:17.248Z,0
2017-02-21T04:45:17.457Z,0
2017-02-21T04:46:17.840Z,0
2017-02-21T04:47:17.878Z,0
2017-02-21T04:48:18.283Z,0
2017-02-21T04:49:16.976Z,0
2017-02-21T04:50:16.764Z,0
2017-02-21T04:51:17.183Z,0
2017-02-21T04:52:17.222Z,0
2017-02-21T04:53:17.243Z,0
2017-02-21T04:54:17.139Z,0
2017-02-21T04:55:17.718Z,0
2017-02-21T04:56:16.917Z,0
2017-02-21T04:57:18.174Z,0
2017-02-21T04:58:18.149Z,0
2017-02-21T04:59:18.858Z,0
2017-02-21T05:00:18.215Z,0
2017-02-21T05:01:18.641Z,0
2017-02-21T05:02:18.258Z,0
2017-02-21T05:03:18.293Z,0
2017-02-21T05:04:18.582Z,0
2017-02-21T05:05:17.964Z,0
2017-02-21T05:06:17.581Z,0
2017-02-21T05:07:18.026Z,0
2017-02-21T05:08:17.654Z,0
2017-02-21T05:09:19.118Z,0
2017-02-21T05:10:18.872Z,0
2017-02-21T05:11:18.517Z,0
2017-02-21T05:12:18.141Z,0
2017-02-21T05:13:18.201Z,0
2017-02-21T05:14:18.450Z,0
2017-02-21T05:15:18.647Z,0
2017-02-21T05:16:18.648Z,0
2017-02-21T05:17:18.685Z,0
2017-02-21T05:18:19.110Z,0
2017-02-21T05:19:18.987Z,0
2017-02-21T05:20:17.963Z,0
2017-02-21T05:21:18.392Z,0
2017-02-21T05:22:18.805Z,0
2017-02-21T05:23:18.861Z,0
2017-02-21T05:24:18.722Z,0
2017-02-21T05:25:18.883Z,0
2017-02-21T05:26:18.940Z,0
2017-02-21T05:27:18.948Z,0
2017-02-21T05:28:18.974Z,0
2017-02-21T05:29:18.866Z,0
2017-02-21T05:30:19.046Z,0
2017-02-21T05:31:18.651Z,0
2017-02-21T05:32:19.073Z,0
2017-02-21T05:33:19.505Z,0
2017-02-21T05:34:19.088Z,0
2017-02-21T05:35:18.759Z,0
2017-02-21T05:36:19.183Z,0
2017-02-21T05:37:19.223Z,0
2017-02-21T05:38:19.241Z,0
2017-02-21T05:39:19.510Z,0
2017-02-21T05:40:19.294Z,0
2017-02-21T05:41:18.923Z,0
2017-02-21T05:42:18.944Z,0
2017-02-21T05:43:19.381Z,0
2017-02-21T05:44:19.661Z,0
2017-02-21T05:45:18.654Z,0
2017-02-21T05:46:18.659Z,0
2017-02-21T05:47:19.488Z,0
2017-02-21T05:48:19.939Z,0
2017-02-21T05:49:19.410Z,0
2017-02-21T05:50:19.166Z,0
2017-02-21T05:51:19.599Z,0
2017-02-21T05:52:18.427Z,0
2017-02-21T05:53:20.048Z,0
2017-02-21T05:54:19.936Z,0
2017-02-21T05:55:19.310Z,0
2017-02-21T05:56:19.336Z,0
2017-02-21T05:57:18.567Z,0
2017-02-21T05:58:19.764Z,0
2017-02-21T05:59:19.668Z,0
2017-02-21T06:00:19.834Z,0
2017-02-21T06:01:19.883Z,0
2017-02-21T06:02:20.295Z,0
2017-02-21T06:03:19.915Z,0
2017-02-21T06:04:19.792Z,0
2017-02-21T06:05:20.376Z,0
2017-02-21T06:06:20.014Z,0
2017-02-21T06:07:19.627Z,0
2017-02-21T06:08:19.270Z,0
2017-02-21T06:09:20.340Z,0
2017-02-21T06:10:19.710Z,0
2017-02-21T06:11:19.336Z,0
2017-02-21T06:12:20.169Z,0
2017-02-21T06:13:20.180Z,0
2017-02-21T06:14:20.195Z,0
2017-02-21T06:15:20.496Z,0
2017-02-21T06:16:19.473Z,0
2017-02-21T06:17:19.898Z,0
2017-02-21T06:18:19.539Z,0
2017-02-21T06:19:19.975Z,0
2017-02-21T06:20:20.636Z,0
2017-02-21T06:21:20.013Z,0
2017-02-21T06:22:20.042Z,0
2017-02-21T06:23:20.463Z,0
2017-02-21T06:24:19.712Z,0
2017-02-21T06:25:20.376Z,0
2017-02-21T06:26:20.150Z,0
2017-02-21T06:27:19.798Z,0
2017-02-21T06:28:20.203Z,0
2017-02-21T06:29:21.031Z,0
2017-02-21T06:30:20.120Z,0
2017-02-21T06:31:20.673Z,0
2017-02-21T06:32:20.313Z,0
2017-02-21T06:33:20.750Z,0
2017-02-21T06:34:19.963Z,0
2017-02-21T06:35:20.640Z,0
2017-02-21T06:36:20.045Z,0
2017-02-21T06:37:20.436Z,0
2017-02-21T06:38:20.897Z,0
2017-02-21T06:39:20.920Z,0
2017-02-21T06:40:21.572Z,0
2017-02-21T06:41:21.365Z,0
2017-02-21T06:42:20.965Z,0
2017-02-21T06:43:20.999Z,0
2017-02-21T06:44:20.631Z,0
2017-02-21T06:45:20.916Z,0
2017-02-21T06:46:20.692Z,0
2017-02-21T06:47:21.125Z,0
2017-02-21T06:48:20.359Z,0
2017-02-21T06:49:20.775Z,0
2017-02-21T06:50:20.660Z,0
2017-02-21T06:51:20.848Z,0
2017-02-21T06:52:20.101Z,0
2017-02-21T06:53:20.476Z,0
2017-02-21T06:54:21.331Z,0
2017-02-21T06:55:20.808Z,0
2017-02-21T06:56:20.969Z,0
2017-02-21T06:57:21.385Z,0
2017-02-21T06:58:21.432Z,0
2017-02-21T06:59:21.417Z,0
2017-02-21T07:00:21.327Z,0
2017-02-21T07:01:21.505Z,0
2017-02-21T07:02:21.137Z,0
2017-02-21T07:03:21.546Z,0
2017-02-21T07:04:21.182Z,0
2017-02-21T07:05:21.867Z,0
2017-02-21T07:06:21.239Z,0
2017-02-21T07:07:21.260Z,0
2017-02-21T07:08:21.681Z,0
2017-02-21T07:09:21.314Z,0
2017-02-21T07:10:21.223Z,0
2017-02-21T07:11:22.176Z,0
2017-02-21T07:12:21.393Z,0
2017-02-21T07:13:21.437Z,0
2017-02-21T07:14:21.847Z,0
2017-02-21T07:15:21.338Z,0
2017-02-21T07:16:21.531Z,0
2017-02-21T07:17:20.747Z,0
2017-02-21T07:18:21.569Z,0
2017-02-21T07:19:21.973Z,0
2017-02-21T07:20:21.878Z,0
2017-02-21T07:21:22.428Z,0
2017-02-21T07:22:22.072Z,0
2017-02-21T07:23:22.104Z,0
2017-02-21T07:24:22.525Z,0
2017-02-21T07:25:22.015Z,0
2017-02-21T07:26:22.578Z,0
2017-02-21T07:27:22.208Z,0
2017-02-21T07:28:21.076Z,0
2017-02-21T07:29:22.265Z,0
2017-02-21T07:30:22.557Z,0
2017-02-21T07:31:21.135Z,0
2017-02-21T07:32:22.738Z,0
2017-02-21T07:33:21.980Z,0
2017-02-21T07:34:21.605Z,0
2017-02-21T07:35:23.061Z,5
2017-02-21T07:36:22.067Z,0
2017-02-21T07:37:22.907Z,0
2017-02-21T07:38:22.128Z,0
2017-02-21T07:39:22.528Z,0
2017-02-21T07:40:22.424Z,0
2017-02-21T07:41:22.188Z,0
2017-02-21T07:42:21.826Z,5
2017-02-21T07:43:21.863Z,5
2017-02-21T07:44:22.272Z,5
2017-02-21T07:45:22.156Z,5
2017-02-21T07:46:22.734Z,5
2017-02-21T07:47:22.766Z,5
2017-02-21T07:48:22.807Z,5
2017-02-21T07:49:22.860Z,5
2017-02-21T07:50:23.105Z,5
2017-02-21T07:51:22.478Z,5
2017-02-21T07:52:22.887Z,10
2017-02-21T07:53:22.527Z,5
2017-02-21T07:54:22.562Z,10
2017-02-21T07:55:23.244Z,10
2017-02-21T07:56:22.257Z,5
2017-02-21T07:57:22.674Z,10
2017-02-21T07:58:22.683Z,10
2017-02-21T07:59:22.291Z,10
2017-02-21T08:00:23.368Z,15
2017-02-21T08:01:23.152Z,10
2017-02-21T08:02:22.774Z,15
2017-02-21T08:03:22.821Z,15
2017-02-21T08:04:22.446Z,10
2017-02-21T08:05:23.120Z,10
2017-02-21T08:06:23.718Z,10
2017-02-21T08:07:23.322Z,10
2017-02-21T08:08:23.346Z,10
2017-02-21T08:09:23.375Z,10
2017-02-21T08:10:24.033Z,15
2017-02-21T08:11:22.620Z,15
2017-02-21T08:12:23.053Z,25
2017-02-21T08:13:23.506Z,20
2017-02-21T08:14:22.723Z,20
2017-02-21T08:15:23.783Z,15
2017-02-21T08:16:23.556Z,10
2017-02-21T08:17:23.193Z,10
2017-02-21T08:18:23.258Z,10
2017-02-21T08:19:23.243Z,10
2017-02-21T08:20:23.513Z,10
2017-02-21T08:21:23.698Z,10
2017-02-21T08:22:23.736Z,5
2017-02-21T08:23:22.953Z,10
2017-02-21T08:24:23.398Z,10
2017-02-21T08:25:23.019Z,10
2017-02-21T08:26:24.130Z,5
2017-02-21T08:27:23.476Z,5
2017-02-21T08:28:24.302Z,10
2017-02-21T08:29:23.522Z,10
2017-02-21T08:30:23.946Z,10
2017-02-21T08:31:24.640Z,10
2017-02-21T08:32:24.399Z,10
2017-02-21T08:33:24.027Z,10
2017-02-21T08:34:23.325Z,15
2017-02-21T08:35:23.715Z,15
2017-02-21T08:36:24.742Z,10
2017-02-21T08:37:24.146Z,10
2017-02-21T08:38:23.771Z,10
2017-02-21T08:39:24.580Z,15
2017-02-21T08:40:24.205Z,10
2017-02-21T08:41:24.102Z,15
2017-02-21T08:42:24.679Z,10
2017-02-21T08:43:24.691Z,15
2017-02-21T08:44:23.548Z,10
2017-02-21T08:45:23.601Z,10
2017-02-21T08:46:25.085Z,5
2017-02-21T08:47:24.410Z,5
2017-02-21T08:48:24.827Z,5
2017-02-21T08:49:24.872Z,5
2017-02-21T08:50:24.114Z,10
2017-02-21T08:51:23.984Z,5
2017-02-21T08:52:24.545Z,5
2017-02-21T08:53:23.386Z,5
2017-02-21T08:54:24.599Z,5
2017-02-21T08:55:24.264Z,5
2017-02-21T08:56:24.504Z,5
2017-02-21T08:57:24.701Z,5
2017-02-21T08:58:24.715Z,5
2017-02-21T08:59:25.151Z,5
2017-02-21T09:00:24.776Z,10
2017-02-21T09:01:25.446Z,10
2017-02-21T09:02:24.828Z,5
2017-02-21T09:03:25.257Z,5
2017-02-21T09:04:25.274Z,5
2017-02-21T09:05:24.891Z,5
2017-02-21T09:06:25.583Z,5
2017-02-21T09:07:24.560Z,5
2017-02-21T09:08:24.612Z,5
2017-02-21T09:09:24.625Z,5
2017-02-21T09:10:24.654Z,5
2017-02-21T09:11:25.707Z,5
2017-02-21T09:12:24.328Z,10
2017-02-21T09:13:25.520Z,10
2017-02-21T09:14:25.569Z,10
2017-02-21T09:15:25.565Z,10
2017-02-21T09:16:25.050Z,10
2017-02-21T09:17:24.429Z,15
2017-02-21T09:18:24.864Z,10
2017-02-21T09:19:25.320Z,10
2017-02-21T09:20:24.909Z,10
2017-02-21T09:21:25.998Z,10
2017-02-21T09:22:24.977Z,10
2017-02-21T09:23:24.995Z,20
2017-02-21T09:24:25.051Z,15
2017-02-21T09:25:25.845Z,10
2017-02-21T09:26:25.329Z,10
2017-02-21T09:27:25.899Z,10
2017-02-21T09:28:25.558Z,15
2017-02-21T09:29:25.552Z,10
2017-02-21T09:30:24.809Z,15
2017-02-21T09:31:25.209Z,10
2017-02-21T09:32:25.102Z,15
2017-02-21T09:33:25.278Z,15
2017-02-21T09:34:25.307Z,15
2017-02-21T09:35:24.540Z,15
2017-02-21T09:36:24.954Z,15
2017-02-21T09:37:26.033Z,10
2017-02-21T09:38:26.222Z,10
2017-02-21T09:39:25.836Z,15
2017-02-21T09:40:25.868Z,10
2017-02-21T09:41:26.305Z,10
2017-02-21T09:42:26.161Z,10
2017-02-21T09:43:25.545Z,15
2017-02-21T09:44:25.598Z,15
2017-02-21T09:45:26.006Z,10
2017-02-21T09:46:26.028Z,10
2017-02-21T09:47:26.692Z,10
2017-02-21T09:48:25.289Z,5
2017-02-21T09:49:25.703Z,10
2017-02-21T09:50:26.159Z,10
2017-02-21T09:51:26.556Z,5
2017-02-21T09:52:25.645Z,10
2017-02-21T09:53:26.611Z,10
2017-02-21T09:54:26.642Z,15
2017-02-21T09:55:26.278Z,10
2017-02-21T09:56:25.887Z,15
2017-02-21T09:57:26.188Z,10
2017-02-21T09:58:26.375Z,10
2017-02-21T09:59:26.769Z,15
2017-02-21T10:00:26.014Z,10
2017-02-21T10:01:26.060Z,10
2017-02-21T10:02:26.719Z,10
2017-02-21T10:03:26.470Z,10
2017-02-21T10:04:26.517Z,10
2017-02-21T10:05:26.944Z,10
2017-02-21T10:06:26.561Z,15
2017-02-21T10:07:27.238Z,15
2017-02-21T10:08:26.211Z,15
2017-02-21T10:09:25.860Z,25
2017-02-21T10:10:26.677Z,20
2017-02-21T10:11:25.903Z,20
2017-02-21T10:12:25.799Z,15
2017-02-21T10:13:27.155Z,10
2017-02-21T10:14:25.977Z,10
2017-02-21T10:15:27.214Z,15
2017-02-21T10:16:27.246Z,15
2017-02-21T10:17:27.107Z,15
2017-02-21T10:18:26.137Z,20
2017-02-21T10:19:26.926Z,30
2017-02-21T10:20:26.537Z,30
2017-02-21T10:21:26.582Z,20
2017-02-21T10:22:26.842Z,25
2017-02-21T10:23:25.836Z,20
2017-02-21T10:24:26.652Z,20
2017-02-21T10:25:27.085Z,15
2017-02-21T10:26:27.114Z,15
2017-02-21T10:27:26.977Z,20
2017-02-21T10:28:27.185Z,15
2017-02-21T10:29:26.780Z,25
2017-02-21T10:30:27.616Z,30
2017-02-21T10:31:27.253Z,20
2017-02-21T10:32:27.514Z,25
2017-02-21T10:33:26.883Z,25
2017-02-21T10:34:26.939Z,25
2017-02-21T10:35:26.935Z,25
2017-02-21T10:36:26.973Z,20
2017-02-21T10:37:27.658Z,20
2017-02-21T10:38:27.863Z,20
2017-02-21T10:39:27.452Z,20
2017-02-21T10:40:27.476Z,20
2017-02-21T10:41:27.526Z,15
2017-02-21T10:42:27.817Z,15
2017-02-21T10:43:26.787Z,15
2017-02-21T10:44:27.584Z,10
2017-02-21T10:45:27.617Z,15
2017-02-21T10:46:27.653Z,15
2017-02-21T10:47:27.921Z,15
2017-02-21T10:48:27.311Z,15
2017-02-21T10:49:28.123Z,15
2017-02-21T10:50:28.141Z,20
2017-02-21T10:51:27.765Z,20
2017-02-21T10:52:28.486Z,20
2017-02-21T10:53:27.449Z,20
2017-02-21T10:54:27.471Z,20
2017-02-21T10:55:27.488Z,15
2017-02-21T10:56:27.925Z,15
2017-02-21T10:57:27.177Z,20
2017-02-21T10:58:28.231Z,15
2017-02-21T10:59:28.003Z,15
2017-02-21T11:00:28.035Z,20
2017-02-21T11:01:27.661Z,20
2017-02-21T11:02:28.094Z,15
2017-02-21T11:03:27.984Z,15
2017-02-21T11:04:28.135Z,15
2017-02-21T11:05:27.372Z,15
2017-02-21T11:06:28.589Z,15
2017-02-21T11:07:27.814Z,15
2017-02-21T11:08:27.699Z,15
2017-02-21T11:09:27.528Z,15
2017-02-21T11:10:28.744Z,15
2017-02-21T11:11:27.154Z,10
2017-02-21T11:12:27.580Z,10
2017-02-21T11:13:28.634Z,15
2017-02-21T11:14:28.404Z,15
2017-02-21T11:15:28.427Z,15
2017-02-21T11:16:28.063Z,20
2017-02-21T11:17:27.722Z,20
2017-02-21T11:18:29.173Z,25
2017-02-21T11:19:28.549Z,25
2017-02-21T11:20:28.968Z,25
2017-02-21T11:21:28.589Z,25
2017-02-21T11:22:28.630Z,25
2017-02-21T11:23:28.539Z,20
2017-02-21T11:24:27.887Z,25
2017-02-21T11:25:28.749Z,25
2017-02-21T11:26:28.730Z,25
2017-02-21T11:27:27.964Z,25
2017-02-21T11:28:29.427Z,20
2017-02-21T11:29:28.415Z,20
2017-02-21T11:30:28.469Z,20
2017-02-21T11:31:28.871Z,20
2017-02-21T11:32:29.289Z,25
2017-02-21T11:33:29.191Z,20
2017-02-21T11:34:28.179Z,20
2017-02-21T11:35:28.984Z,25
2017-02-21T11:36:28.633Z,30
2017-02-21T11:37:28.262Z,20
2017-02-21T11:38:29.735Z,25
2017-02-21T11:39:29.480Z,25
2017-02-21T11:40:28.732Z,25
2017-02-21T11:41:28.741Z,25
2017-02-21T11:42:28.786Z,20
2017-02-21T11:43:29.447Z,30
2017-02-21T11:44:28.848Z,35
2017-02-21T11:45:28.880Z,35
2017-02-21T11:46:29.337Z,40
2017-02-21T11:47:28.109Z,35
2017-02-21T11:48:29.192Z,40
2017-02-21T11:49:29.356Z,35
2017-02-21T11:50:29.001Z,45
2017-02-21T11:51:29.845Z,45
2017-02-21T11:52:29.463Z,45
2017-02-21T11:53:30.118Z,45
2017-02-21T11:54:29.099Z,40
2017-02-21T11:55:28.740Z,40
2017-02-21T11:56:29.169Z,40
2017-02-21T11:57:29.205Z,40
2017-02-21T11:58:29.083Z,35
2017-02-21T11:59:29.239Z,40
2017-02-21T12:00:29.276Z,40
2017-02-21T12:01:30.097Z,35
2017-02-21T12:02:29.705Z,30
2017-02-21T12:03:29.623Z,35
2017-02-21T12:04:29.771Z,35
2017-02-21T12:05:28.600Z,30
2017-02-21T12:06:29.433Z,30
2017-02-21T12:07:29.473Z,35
2017-02-21T12:08:29.765Z,35
2017-02-21T12:09:29.139Z,30
2017-02-21T12:10:29.936Z,35
2017-02-21T12:11:29.971Z,30
2017-02-21T12:12:29.997Z,30
2017-02-21T12:13:30.298Z,30
2017-02-21T12:14:30.470Z,35
2017-02-21T12:15:30.463Z,35
2017-02-21T12:16:30.523Z,30
2017-02-21T12:17:29.349Z,35
2017-02-21T12:18:29.619Z,25
2017-02-21T12:19:30.191Z,35
2017-02-21T12:20:30.244Z,30
2017-02-21T12:21:29.860Z,30
2017-02-21T12:22:30.266Z,25
2017-02-21T12:23:30.154Z,35
2017-02-21T12:24:30.737Z,40
2017-02-21T12:25:30.746Z,30
2017-02-21T12:26:30.767Z,35
2017-02-21T12:27:30.787Z,35
2017-02-21T12:28:30.290Z,30
2017-02-21T12:29:30.471Z,25
2017-02-21T12:30:30.098Z,20
2017-02-21T12:31:30.119Z,20
2017-02-21T12:32:29.773Z,15
2017-02-21T12:33:31.206Z,20
2017-02-21T12:34:30.219Z,15
2017-02-21T12:35:30.231Z,20
2017-02-21T12:36:30.285Z,15
2017-02-21T12:37:30.693Z,15
2017-02-21T12:38:30.326Z,20
2017-02-21T12:39:30.586Z,15
2017-02-21T12:40:30.771Z,15
2017-02-21T12:41:29.616Z,20
2017-02-21T12:42:31.203Z,10
2017-02-21T12:43:30.843Z,10
2017-02-21T12:44:30.343Z,10
2017-02-21T12:45:30.507Z,10
2017-02-21T12:46:30.540Z,10
2017-02-21T12:47:30.169Z,10
2017-02-21T12:48:30.590Z,10
2017-02-21T12:49:31.259Z,10
2017-02-21T12:50:31.436Z,15
2017-02-21T12:51:31.068Z,15
2017-02-21T12:52:31.480Z,15
2017-02-21T12:53:30.717Z,15
2017-02-21T12:54:31.390Z,15
2017-02-21T12:55:30.376Z,15
2017-02-21T12:56:31.198Z,10
2017-02-21T12:57:31.613Z,15
2017-02-21T12:58:30.861Z,15
2017-02-21T12:59:31.155Z,10
2017-02-21T13:00:30.543Z,10
2017-02-21T13:01:30.948Z,15
2017-02-21T13:02:31.372Z,15
2017-02-21T13:03:31.790Z,20
2017-02-21T13:04:31.694Z,30
2017-02-21T13:05:31.043Z,25
2017-02-21T13:06:31.083Z,25
2017-02-21T13:07:30.712Z,15
2017-02-21T13:08:31.919Z,15
2017-02-21T13:09:31.401Z,15
2017-02-21T13:10:31.205Z,20
2017-02-21T13:11:32.014Z,25
2017-02-21T13:12:30.840Z,25
2017-02-21T13:13:30.889Z,20
2017-02-21T13:14:31.137Z,20
2017-02-21T13:15:31.721Z,20
2017-02-21T13:16:31.739Z,25
2017-02-21T13:17:31.775Z,20
2017-02-21T13:18:31.836Z,25
2017-02-21T13:19:31.297Z,25
2017-02-21T13:20:31.462Z,30
2017-02-21T13:21:30.706Z,30
2017-02-21T13:22:32.300Z,30
2017-02-21T13:23:31.945Z,30
2017-02-21T13:24:32.215Z,25
2017-02-21T13:25:32.021Z,30
2017-02-21T13:26:31.621Z,25
2017-02-21T13:27:31.250Z,25
2017-02-21T13:28:32.108Z,25
2017-02-21T13:29:32.763Z,30
2017-02-21T13:30:32.132Z,25
2017-02-21T13:31:31.769Z,30
2017-02-21T13:32:32.602Z,25
2017-02-21T13:33:31.439Z,25
2017-02-21T13:34:32.100Z,25
2017-02-21T13:35:32.276Z,20
2017-02-21T13:36:31.504Z,25
2017-02-21T13:37:31.922Z,20
2017-02-21T13:38:32.775Z,15
2017-02-21T13:39:32.622Z,15
2017-02-21T13:40:32.796Z,10
2017-02-21T13:41:32.845Z,10
2017-02-21T13:42:32.448Z,10
2017-02-21T13:43:32.473Z,10
2017-02-21T13:44:32.371Z,10
2017-02-21T13:45:32.532Z,5
2017-02-21T13:46:32.571Z,5
2017-02-21T13:47:32.197Z,5
2017-02-21T13:48:32.622Z,5
2017-02-21T13:49:32.900Z,15
2017-02-21T13:50:32.283Z,25
2017-02-21T13:51:32.715Z,15
2017-02-21T13:52:32.752Z,20
2017-02-21T13:53:33.168Z,15
2017-02-21T13:54:33.045Z,10
2017-02-21T13:55:32.826Z,10
2017-02-21T13:56:32.438Z,15
2017-02-21T13:57:31.672Z,25
2017-02-21T13:58:32.501Z,20
2017-02-21T13:59:33.192Z,20
2017-02-21T14:00:32.598Z,25
2017-02-21T14:01:32.598Z,25
2017-02-21T14:02:33.015Z,15
2017-02-21T14:03:32.268Z,15
2017-02-21T14:04:33.308Z,20
2017-02-21T14:05:33.099Z,20
2017-02-21T14:06:33.114Z,20
2017-02-21T14:07:33.150Z,20
2017-02-21T14:08:32.399Z,25
2017-02-21T14:09:33.464Z,30
2017-02-21T14:10:32.461Z,30
2017-02-21T14:11:33.246Z,25
2017-02-21T14:12:32.510Z,25
2017-02-21T14:13:33.324Z,20
2017-02-21T14:14:33.992Z,20
2017-02-21T14:15:32.956Z,20
2017-02-21T14:16:33.398Z,20
2017-02-21T14:17:33.815Z,15
2017-02-21T14:18:33.839Z,15
2017-02-21T14:19:33.734Z,15
2017-02-21T14:20:32.711Z,15
2017-02-21T14:21:33.533Z,20
2017-02-21T14:22:32.742Z,20
2017-02-21T14:23:32.782Z,20
2017-02-21T14:24:33.194Z,20
2017-02-21T14:25:34.280Z,20
2017-02-21T14:26:33.285Z,20
2017-02-21T14:27:32.522Z,20
2017-02-21T14:28:33.715Z,20
2017-02-21T14:29:34.145Z,25
2017-02-21T14:30:34.413Z,25
2017-02-21T14:31:33.775Z,25
2017-02-21T14:32:33.029Z,25
2017-02-21T14:33:32.678Z,20
2017-02-21T14:34:33.478Z,20